Time,TemperatureF,DewpointF,PressureIn,WindDirection,WindDirectionDegrees,WindSpeedMPH,WindSpeedGustMPH,Humidity,HourlyPrecipIn,Conditions,Clouds,dailyrainin,SolarRadiationWatts/m^2,SoftwareType,DateUTC
2013-02-27 00:00:00,53.0,27.4,30.20,NW,314,0.0,0.0,37,0.00,CLR,,0.00,0.0,WeatherDisplay:10.37,2013-02-27 08:00:00,
2013-02-27 00:05:00,52.6,26.4,30.20,NW,315,0.0,0.0,36,0.00,CLR,,0.00,0.0,WeatherDisplay:10.37,2013-02-27 08:05:00,
2013-02-27 00:10:00,52.3,26.8,30.20,NW,314,0.0,0.0,37,0.00,CLR,,0.00,0.0,WeatherDisplay:10.37,2013-02-27 08:10:00,
2013-02-27 00:15:00,52.1,26.6,30.20,NW,314,0.0,0.0,37,0.00,CLR,,0.00,0.0,WeatherDisplay:10.37,2013-02-27 08:15:00,
2013-02-27 00:20:00,51.9,26.4,30.20,NW,314,1.4,2.3,37,0.00,CLR,,0.00,0.0,WeatherDisplay:10.37,2013-02-27 08:20:00,
2013-02-27 00:25:00,51.7,26.9,30.20,NW,314,0.0,0.0,38,0.00,CLR,,0.00,0.0,WeatherDisplay:10.37,2013-02-27 08:25:00,
2013-02-27 00:30:00,51.7,25.6,30.20,West,276,2.1,3.5,36,0.00,CLR,,0.00,0.0,WeatherDisplay:10.37,2013-02-27 08:30:00,
2013-02-27 00:35:00,52.1,25.3,30.20,SW,221,3.7,4.6,35,0.00,CLR,,0.00,0.0,WeatherDisplay:10.37,2013-02-27 08:35:00,
2013-02-27 00:40:00,52.6,25.0,30.20,SW,222,5.6,6.9,34,0.00,CLR,,0.00,0.0,WeatherDisplay:10.37,2013-02-27 08:40:00,
2013-02-27 00:45:00,53.1,24.7,30.20,SW,225,6.2,8.1,33,0.00,CLR,,0.00,0.0,WeatherDisplay:10.37,2013-02-27 08:45:00,
2013-02-27 00:50:00,53.7,25.2,30.20,WSW,247,5.7,8.1,33,0.00,CLR,,0.00,0.0,WeatherDisplay:10.37,2013-02-27 08:50:00,
2013-02-27 00:55:00,54.2,26.4,30.20,SW,233,5.2,6.9,34,0.00,CLR,,0.00,0.0,WeatherDisplay:10.37,2013-02-27 08:55:00,
2013-02-27 01:00:00,54.5,26.7,30.21,West,268,3.6,6.9,34,0.00,CLR,,0.00,0.0,WeatherDisplay:10.37,2013-02-27 09:00:00,
2013-02-27 01:05:00,54.9,27.7,30.21,WSW,250,5.2,8.1,35,0.00,CLR,,0.00,0.0,WeatherDisplay:10.37,2013-02-27 09:05:00,
2013-02-27 01:10:00,55.4,27.5,30.21,WSW,255,5.1,7.0,34,0.00,CLR,,0.00,0.0,WeatherDisplay:10.37,2013-02-27 09:10:00,
2013-02-27 01:15:00,55.7,27.7,30.21,West,273,6.3,8.1,34,0.00,CLR,,0.00,0.0,WeatherDisplay:10.37,2013-02-27 09:15:00,
2013-02-27 01:20:00,55.8,27.8,30.21,West,265,4.8,5.8,34,0.00,CLR,,0.00,0.0,WeatherDisplay:10.37,2013-02-27 09:20:00,
2013-02-27 01:25:00,55.8,27.8,30.21,West,262,3.2,5.0,34,0.00,CLR,,0.00,0.0,WeatherDisplay:10.37,2013-02-27 09:25:00,
2013-02-27 01:30:00,55.8,27.8,30.21,West,266,5.6,8.1,34,0.00,CLR,,0.00,0.0,WeatherDisplay:10.37,2013-02-27 09:30:00,
2013-02-27 01:35:00,55.8,27.8,30.21,West,264,6.1,7.0,34,0.00,CLR,,0.00,0.0,WeatherDisplay:10.37,2013-02-27 09:35:00,
2013-02-27 01:40:00,55.8,28.5,30.21,West,272,5.8,8.1,35,0.00,CLR,,0.00,0.0,WeatherDisplay:10.37,2013-02-27 09:40:00,
2013-02-27 01:45:00,55.8,28.5,30.21,WSW,252,6.2,8.1,35,0.00,CLR,,0.00,0.0,WeatherDisplay:10.37,2013-02-27 09:45:00,
2013-02-27 01:50:00,55.7,28.4,30.22,WSW,241,4.2,6.9,35,0.00,CLR,,0.00,0.0,WeatherDisplay:10.37,2013-02-27 09:50:00,
2013-02-27 01:55:00,55.5,28.3,30.22,SW,226,5.9,6.9,35,0.00,CLR,,0.00,0.0,WeatherDisplay:10.37,2013-02-27 09:55:00,
2013-02-27 02:00:00,55.4,28.2,30.22,WSW,248,3.4,5.8,35,0.00,CLR,,0.00,0.0,WeatherDisplay:10.37,2013-02-27 10:00:00,
2013-02-27 02:05:00,55.1,28.6,30.22,WSW,245,5.1,6.9,36,0.00,CLR,,0.00,0.0,WeatherDisplay:10.37,2013-02-27 10:05:00,
2013-02-27 02:10:00,55.0,28.5,30.21,SW,226,4.2,5.8,36,0.00,CLR,,0.00,0.0,WeatherDisplay:10.37,2013-02-27 10:10:00,
2013-02-27 02:15:00,54.8,28.3,30.21,SW,231,3.9,4.6,36,0.00,CLR,,0.00,0.0,WeatherDisplay:10.37,2013-02-27 10:15:00,
2013-02-27 02:20:00,54.6,28.2,30.21,WSW,251,4.5,6.0,36,0.00,CLR,,0.00,0.0,WeatherDisplay:10.37,2013-02-27 10:20:00,
2013-02-27 02:25:00,54.4,28.6,30.21,WSW,238,4.3,5.8,37,0.00,CLR,,0.00,0.0,WeatherDisplay:10.37,2013-02-27 10:25:00,
2013-02-27 02:30:00,54.4,28.6,30.21,WSW,247,5.6,8.1,37,0.00,CLR,,0.00,0.0,WeatherDisplay:10.37,2013-02-27 10:30:00,
2013-02-27 02:35:00,54.4,28.6,30.21,WSW,237,6.6,8.1,37,0.00,CLR,,0.00,0.0,WeatherDisplay:10.37,2013-02-27 10:35:00,
2013-02-27 02:40:00,54.4,28.0,30.21,WSW,239,7.3,9.2,36,0.00,CLR,,0.00,0.0,WeatherDisplay:10.37,2013-02-27 10:40:00,
2013-02-27 02:45:00,54.5,28.1,30.21,WSW,239,7.8,10.4,36,0.00,CLR,,0.00,0.0,WeatherDisplay:10.37,2013-02-27 10:45:00,
2013-02-27 02:50:00,54.6,28.2,30.21,WSW,251,5.9,6.9,36,0.00,CLR,,0.00,0.0,WeatherDisplay:10.37,2013-02-27 10:50:00,
2013-02-27 02:55:00,54.8,27.6,30.21,West,260,4.9,6.9,35,0.00,CLR,,0.00,0.0,WeatherDisplay:10.37,2013-02-27 10:55:00,
2013-02-27 03:00:00,54.9,28.4,30.21,West,272,5.3,8.1,36,0.00,CLR,,0.00,0.0,WeatherDisplay:10.37,2013-02-27 11:00:00,
2013-02-27 03:05:00,55.1,27.9,30.21,West,268,5.7,6.9,35,0.00,CLR,,0.00,0.0,WeatherDisplay:10.37,2013-02-27 11:05:00,
2013-02-27 03:10:00,55.2,28.0,30.22,West,266,3.4,4.6,35,0.00,CLR,,0.00,0.0,WeatherDisplay:10.37,2013-02-27 11:10:00,
2013-02-27 03:15:00,55.1,28.6,30.22,WNW,287,2.1,3.5,36,0.00,CLR,,0.00,0.0,WeatherDisplay:10.37,2013-02-27 11:15:00,
2013-02-27 03:20:00,54.8,28.3,30.22,WNW,286,0.4,2.3,36,0.00,CLR,,0.00,0.0,WeatherDisplay:10.37,2013-02-27 11:20:00,
2013-02-27 03:25:00,54.3,28.6,30.22,WNW,287,0.0,0.0,37,0.00,CLR,,0.00,0.0,WeatherDisplay:10.37,2013-02-27 11:25:00,
2013-02-27 03:30:00,53.8,28.1,30.22,WNW,286,0.6,1.1,37,0.00,CLR,,0.00,0.0,WeatherDisplay:10.37,2013-02-27 11:30:00,
2013-02-27 03:35:00,53.2,30.1,30.22,WNW,286,0.6,1.1,41,0.00,CLR,,0.00,0.0,WeatherDisplay:10.37,2013-02-27 11:35:00,
2013-02-27 03:40:00,52.7,31.9,30.22,WNW,287,0.1,1.1,45,0.00,CLR,,0.00,0.0,WeatherDisplay:10.37,2013-02-27 11:40:00,
2013-02-27 03:45:00,52.0,33.4,30.22,WNW,286,0.1,1.1,49,0.00,CLR,,0.00,0.0,WeatherDisplay:10.37,2013-02-27 11:45:00,
2013-02-27 03:50:00,51.4,34.3,30.22,WNW,287,2.0,2.3,52,0.00,CLR,,0.00,0.0,WeatherDisplay:10.37,2013-02-27 11:50:00,
2013-02-27 03:55:00,50.6,33.1,30.22,WNW,284,3.2,3.5,51,0.00,CLR,,0.00,0.0,WeatherDisplay:10.37,2013-02-27 11:55:00,
2013-02-27 04:00:00,50.0,32.1,30.22,WNW,289,3.6,4.0,50,0.00,CLR,,0.00,0.0,WeatherDisplay:10.37,2013-02-27 12:00:00,
2013-02-27 04:05:00,49.6,32.7,30.22,WNW,292,0.2,1.1,52,0.00,CLR,,0.00,0.0,WeatherDisplay:10.37,2013-02-27 12:05:00,
2013-02-27 04:10:00,49.3,30.4,30.22,West,270,2.5,3.5,48,0.00,CLR,,0.00,0.0,WeatherDisplay:10.37,2013-02-27 12:10:00,
2013-02-27 04:15:00,49.4,28.9,30.22,WSW,248,2.5,3.5,45,0.00,CLR,,0.00,0.0,WeatherDisplay:10.37,2013-02-27 12:15:00,
2013-02-27 04:20:00,49.7,28.6,30.23,WSW,249,2.5,3.5,44,0.00,CLR,,0.00,0.0,WeatherDisplay:10.37,2013-02-27 12:20:00,
2013-02-27 04:25:00,50.1,27.9,30.23,WSW,251,5.0,6.0,42,0.00,CLR,,0.00,0.0,WeatherDisplay:10.37,2013-02-27 12:25:00,
2013-02-27 04:30:00,50.8,27.9,30.23,WSW,251,2.7,3.5,41,0.00,CLR,,0.00,0.0,WeatherDisplay:10.37,2013-02-27 12:30:00,
2013-02-27 04:35:00,51.0,27.5,30.23,WSW,251,2.0,2.3,40,0.00,CLR,,0.00,0.0,WeatherDisplay:10.37,2013-02-27 12:35:00,
2013-02-27 04:40:00,51.1,27.6,30.23,WSW,244,2.6,3.5,40,0.00,CLR,,0.00,0.0,WeatherDisplay:10.37,2013-02-27 12:40:00,
2013-02-27 04:45:00,51.2,27.1,30.23,SW,233,2.4,3.5,39,0.00,CLR,,0.00,0.0,WeatherDisplay:10.37,2013-02-27 12:45:00,
2013-02-27 04:50:00,51.2,27.1,30.23,SW,224,4.0,4.6,39,0.00,CLR,,0.00,0.0,WeatherDisplay:10.37,2013-02-27 12:50:00,
2013-02-27 04:55:00,51.5,26.7,30.23,SW,223,1.5,3.5,38,0.00,CLR,,0.00,0.0,WeatherDisplay:10.37,2013-02-27 12:55:00,
2013-02-27 05:00:00,51.7,26.9,30.23,SW,224,1.7,2.3,38,0.00,CLR,,0.00,0.0,WeatherDisplay:10.37,2013-02-27 13:00:00,
2013-02-27 05:05:00,51.8,27.0,30.23,SW,224,2.6,3.5,38,0.00,CLR,,0.00,0.0,WeatherDisplay:10.37,2013-02-27 13:05:00,
2013-02-27 05:10:00,51.8,26.3,30.23,SW,223,2.3,3.5,37,0.00,CLR,,0.00,0.0,WeatherDisplay:10.37,2013-02-27 13:10:00,
2013-02-27 05:15:00,51.9,26.4,30.23,SW,224,1.9,3.0,37,0.00,CLR,,0.00,0.0,WeatherDisplay:10.37,2013-02-27 13:15:00,
2013-02-27 05:20:00,51.8,26.3,30.23,SW,224,2.2,3.5,37,0.00,CLR,,0.00,0.0,WeatherDisplay:10.37,2013-02-27 13:20:00,
2013-02-27 05:25:00,51.8,26.3,30.23,SW,224,2.4,3.5,37,0.00,CLR,,0.00,0.0,WeatherDisplay:10.37,2013-02-27 13:25:00,
2013-02-27 05:30:00,51.9,25.8,30.23,SW,224,0.0,0.0,36,0.00,CLR,,0.00,0.0,WeatherDisplay:10.37,2013-02-27 13:30:00,
2013-02-27 05:35:00,51.9,25.8,30.23,SW,223,0.0,0.0,36,0.00,CLR,,0.00,0.0,WeatherDisplay:10.37,2013-02-27 13:35:00,
2013-02-27 05:40:00,51.8,25.7,30.23,SW,224,0.0,0.0,36,0.00,CLR,,0.00,0.0,WeatherDisplay:10.37,2013-02-27 13:40:00,
2013-02-27 05:45:00,51.6,25.5,30.23,SW,224,0.2,1.0,36,0.00,CLR,,0.00,0.0,WeatherDisplay:10.37,2013-02-27 13:45:00,
2013-02-27 05:50:00,51.6,25.5,30.23,SW,224,0.8,2.3,36,0.00,CLR,,0.00,0.0,WeatherDisplay:10.37,2013-02-27 13:50:00,
2013-02-27 05:55:00,51.8,25.7,30.23,SW,224,0.9,1.1,36,0.00,CLR,,0.00,0.0,WeatherDisplay:10.37,2013-02-27 13:55:00,
2013-02-27 06:00:00,51.8,25.7,30.23,SW,224,0.0,0.0,36,0.00,CLR,,0.00,0.0,WeatherDisplay:10.37,2013-02-27 14:00:00,
2013-02-27 06:05:00,51.6,26.1,30.23,SW,223,0.0,0.0,37,0.00,CLR,,0.00,0.0,WeatherDisplay:10.37,2013-02-27 14:05:00,
2013-02-27 06:10:00,51.3,25.9,30.23,SW,224,0.0,0.0,37,0.00,CLR,,0.00,0.0,WeatherDisplay:10.37,2013-02-27 14:10:00,
2013-02-27 06:15:00,51.0,26.3,30.23,SW,224,0.0,0.0,38,0.00,CLR,,0.00,0.0,WeatherDisplay:10.37,2013-02-27 14:15:00,
2013-02-27 06:20:00,50.9,25.5,30.23,SW,224,0.0,0.0,37,0.00,CLR,,0.00,0.0,WeatherDisplay:10.37,2013-02-27 14:20:00,
2013-02-27 06:25:00,51.4,26.0,30.23,SW,223,0.0,0.0,37,0.00,CLR,,0.00,0.0,WeatherDisplay:10.37,2013-02-27 14:25:00,
2013-02-27 06:30:00,51.9,25.1,30.23,SW,224,0.0,0.0,35,0.00,CLR,,0.00,0.0,WeatherDisplay:10.37,2013-02-27 14:30:00,
2013-02-27 06:35:00,52.1,25.9,30.23,SW,224,0.0,0.0,36,0.00,CLR,,0.00,0.0,WeatherDisplay:10.37,2013-02-27 14:35:00,
2013-02-27 06:40:00,52.0,25.8,30.23,SW,224,0.0,0.0,36,0.00,CLR,,0.00,0.0,WeatherDisplay:10.37,2013-02-27 14:40:00,
2013-02-27 06:45:00,51.7,25.6,30.24,SW,224,0.0,0.0,36,0.00,CLR,,0.00,7.0,WeatherDisplay:10.37,2013-02-27 14:45:00,
2013-02-27 06:50:00,51.4,26.0,30.24,SW,226,2.6,3.5,37,0.00,CLR,,0.00,9.0,WeatherDisplay:10.37,2013-02-27 14:50:00,
2013-02-27 06:55:00,51.0,26.3,30.24,WSW,256,3.2,5.0,38,0.00,CLR,,0.00,12.0,WeatherDisplay:10.37,2013-02-27 14:55:00,
2013-02-27 07:00:00,50.6,26.5,30.24,WNW,294,2.9,4.0,39,0.00,CLR,,0.00,16.0,WeatherDisplay:10.37,2013-02-27 15:00:00,
2013-02-27 07:05:00,50.1,27.3,30.24,WNW,296,1.5,3.5,41,0.00,CLR,,0.00,19.0,WeatherDisplay:10.37,2013-02-27 15:05:00,
2013-02-27 07:10:00,49.7,28.6,30.25,WNW,296,2.4,3.5,44,0.00,CLR,,0.00,23.0,WeatherDisplay:10.37,2013-02-27 15:10:00,
2013-02-27 07:15:00,49.3,28.3,30.25,WNW,297,0.9,2.3,44,0.00,CLR,,0.00,26.0,WeatherDisplay:10.37,2013-02-27 15:15:00,
2013-02-27 07:20:00,49.1,28.7,30.25,WNW,296,1.0,2.3,45,0.00,CLR,,0.00,30.0,WeatherDisplay:10.37,2013-02-27 15:20:00,
2013-02-27 07:25:00,49.1,28.7,30.25,WNW,297,0.0,0.0,45,0.00,CLR,,0.00,40.0,WeatherDisplay:10.37,2013-02-27 15:25:00,
2013-02-27 07:30:00,49.2,29.3,30.25,WNW,297,0.0,0.0,46,0.00,CLR,,0.00,58.0,WeatherDisplay:10.37,2013-02-27 15:30:00,
2013-02-27 07:35:00,49.5,29.6,30.25,WNW,297,0.0,0.0,46,0.00,CLR,,0.00,65.0,WeatherDisplay:10.37,2013-02-27 15:35:00,
2013-02-27 07:40:00,49.8,30.4,30.26,WNW,296,1.4,2.3,47,0.00,CLR,,0.00,109.0,WeatherDisplay:10.37,2013-02-27 15:40:00,
2013-02-27 07:45:00,50.4,30.4,30.26,WNW,297,1.3,2.3,46,0.00,CLR,,0.00,135.0,WeatherDisplay:10.37,2013-02-27 15:45:00,
2013-02-27 07:50:00,50.7,30.1,30.27,WNW,297,1.9,2.3,45,0.00,CLR,,0.00,142.0,WeatherDisplay:10.37,2013-02-27 15:50:00,
2013-02-27 07:55:00,51.1,31.6,30.27,WNW,297,2.6,3.5,47,0.00,CLR,,0.00,132.0,WeatherDisplay:10.37,2013-02-27 15:55:00,
2013-02-27 08:00:00,51.6,33.6,30.28,NW,306,4.1,5.0,50,0.00,CLR,,0.00,220.0,WeatherDisplay:10.37,2013-02-27 16:00:00,
2013-02-27 08:05:00,52.3,33.7,30.28,WNW,300,4.5,5.0,49,0.00,CLR,,0.00,274.0,WeatherDisplay:10.37,2013-02-27 16:05:00,
2013-02-27 08:10:00,53.1,33.9,30.29,WNW,302,4.2,5.0,48,0.00,CLR,,0.00,290.0,WeatherDisplay:10.37,2013-02-27 16:10:00,
2013-02-27 08:15:00,53.9,33.6,30.29,NW,307,3.5,4.6,46,0.00,CLR,,0.00,320.0,WeatherDisplay:10.37,2013-02-27 16:15:00,
2013-02-27 08:20:00,54.6,33.7,30.29,NW,306,2.2,3.5,45,0.00,CLR,,0.00,288.0,WeatherDisplay:10.37,2013-02-27 16:20:00,
2013-02-27 08:25:00,55.1,34.7,30.30,NW,307,2.3,3.5,46,0.00,CLR,,0.00,185.0,WeatherDisplay:10.37,2013-02-27 16:25:00,
2013-02-27 08:30:00,55.0,35.1,30.30,WNW,301,2.0,3.5,47,0.00,CLR,,0.00,172.0,WeatherDisplay:10.37,2013-02-27 16:30:00,
2013-02-27 08:35:00,54.9,36.1,30.30,WNW,301,2.6,3.5,49,0.00,CLR,,0.00,295.0,WeatherDisplay:10.37,2013-02-27 16:35:00,
2013-02-27 08:40:00,54.6,35.8,30.30,WNW,293,3.3,4.6,49,0.00,CLR,,0.00,163.0,WeatherDisplay:10.37,2013-02-27 16:40:00,
2013-02-27 08:45:00,54.4,36.6,30.30,West,280,2.8,4.0,51,0.00,CLR,,0.00,316.0,WeatherDisplay:10.37,2013-02-27 16:45:00,
2013-02-27 08:50:00,54.0,36.8,30.30,West,259,1.5,5.0,52,0.00,CLR,,0.00,301.0,WeatherDisplay:10.37,2013-02-27 16:50:00,
2013-02-27 08:55:00,53.8,35.1,30.30,WSW,250,1.6,3.5,49,0.00,CLR,,0.00,357.0,WeatherDisplay:10.37,2013-02-27 16:55:00,
2013-02-27 09:00:00,54.0,36.3,30.30,WSW,250,1.0,2.3,51,0.00,CLR,,0.00,396.0,WeatherDisplay:10.37,2013-02-27 17:00:00,
2013-02-27 09:05:00,54.8,39.8,30.30,WNW,295,0.7,2.0,57,0.00,CLR,,0.00,436.0,WeatherDisplay:10.37,2013-02-27 17:05:00,
2013-02-27 09:10:00,55.9,40.0,30.30,WNW,296,1.3,3.5,55,0.00,CLR,,0.00,475.0,WeatherDisplay:10.37,2013-02-27 17:10:00,
2013-02-27 09:15:00,56.9,40.9,30.30,WNW,300,1.1,2.3,55,0.00,CLR,,0.00,420.0,WeatherDisplay:10.37,2013-02-27 17:15:00,
2013-02-27 09:20:00,57.7,41.2,30.30,NNW,347,0.9,2.3,54,0.00,CLR,,0.00,392.0,WeatherDisplay:10.37,2013-02-27 17:20:00,
2013-02-27 09:25:00,58.0,41.0,30.30,North,353,1.8,3.5,53,0.00,CLR,,0.00,473.0,WeatherDisplay:10.37,2013-02-27 17:25:00,
2013-02-27 09:30:00,58.2,41.1,30.30,North,360,1.8,3.5,53,0.00,CLR,,0.00,566.0,WeatherDisplay:10.37,2013-02-27 17:30:00,
2013-02-27 09:35:00,58.5,40.9,30.30,North,11,0.7,3.0,52,0.00,CLR,,0.00,420.0,WeatherDisplay:10.37,2013-02-27 17:35:00,
2013-02-27 09:40:00,58.9,41.8,30.31,NNE,13,1.3,3.5,53,0.00,CLR,,0.00,471.0,WeatherDisplay:10.37,2013-02-27 17:40:00,
2013-02-27 09:45:00,59.3,38.5,30.31,NNE,27,1.8,3.5,46,0.00,CLR,,0.00,575.0,WeatherDisplay:10.37,2013-02-27 17:45:00,
2013-02-27 09:50:00,59.6,40.4,30.31,NNE,23,2.1,3.5,49,0.00,CLR,,0.00,450.0,WeatherDisplay:10.37,2013-02-27 17:50:00,
2013-02-27 09:55:00,59.7,39.4,30.31,NE,53,2.0,3.5,47,0.00,CLR,,0.00,533.0,WeatherDisplay:10.37,2013-02-27 17:55:00,
2013-02-27 10:00:00,59.6,41.4,30.31,North,2,1.6,3.5,51,0.00,CLR,,0.00,410.0,WeatherDisplay:10.37,2013-02-27 18:00:00,
2013-02-27 10:05:00,59.8,41.1,30.31,North,10,1.4,3.5,50,0.00,CLR,,0.00,645.0,WeatherDisplay:10.37,2013-02-27 18:05:00,
2013-02-27 10:10:00,60.4,41.1,30.31,NNE,17,2.0,3.0,49,0.00,CLR,,0.00,640.0,WeatherDisplay:10.37,2013-02-27 18:10:00,
2013-02-27 10:15:00,61.0,41.7,30.31,NNE,12,0.5,3.5,49,0.00,CLR,,0.00,540.0,WeatherDisplay:10.37,2013-02-27 18:15:00,
2013-02-27 10:20:00,61.4,41.5,30.31,North,11,1.6,3.5,48,0.00,CLR,,0.00,415.0,WeatherDisplay:10.37,2013-02-27 18:20:00,
2013-02-27 10:25:00,61.6,41.2,30.31,NNE,18,1.0,3.5,47,0.00,CLR,,0.00,705.0,WeatherDisplay:10.37,2013-02-27 18:25:00,
2013-02-27 10:30:00,61.9,42.0,30.31,NNE,13,1.3,3.0,48,0.00,CLR,,0.00,519.0,WeatherDisplay:10.37,2013-02-27 18:30:00,
2013-02-27 10:35:00,62.2,41.2,30.31,NNE,16,1.6,3.5,46,0.00,CLR,,0.00,220.0,WeatherDisplay:10.37,2013-02-27 18:35:00,
2013-02-27 10:40:00,62.2,40.6,30.31,NNE,17,1.5,3.0,45,0.00,CLR,,0.00,605.0,WeatherDisplay:10.37,2013-02-27 18:40:00,
2013-02-27 10:45:00,62.4,39.6,30.31,NNE,19,0.5,3.5,43,0.00,CLR,,0.00,684.0,WeatherDisplay:10.37,2013-02-27 18:45:00,
2013-02-27 10:50:00,62.8,40.0,30.31,NNE,18,1.4,4.6,43,0.00,CLR,,0.00,401.0,WeatherDisplay:10.37,2013-02-27 18:50:00,
2013-02-27 10:55:00,63.3,39.2,30.30,NE,49,2.5,3.5,41,0.00,CLR,,0.00,561.0,WeatherDisplay:10.37,2013-02-27 18:55:00,
2013-02-27 11:00:00,63.7,39.5,30.30,NNE,31,3.1,4.6,41,0.00,CLR,,0.00,591.0,WeatherDisplay:10.37,2013-02-27 19:00:00,
2013-02-27 11:05:00,64.1,39.3,30.30,NNE,26,2.5,3.5,40,0.00,CLR,,0.00,715.0,WeatherDisplay:10.37,2013-02-27 19:05:00,
2013-02-27 11:10:00,64.5,40.3,30.30,NNE,15,3.4,5.0,41,0.00,CLR,,0.00,722.0,WeatherDisplay:10.37,2013-02-27 19:10:00,
2013-02-27 11:15:00,64.7,39.8,30.30,NNE,16,2.5,5.0,40,0.00,CLR,,0.00,722.0,WeatherDisplay:10.37,2013-02-27 19:15:00,
2013-02-27 11:20:00,64.3,40.7,30.30,NNE,20,2.4,3.5,42,0.00,CLR,,0.00,724.0,WeatherDisplay:10.37,2013-02-27 19:20:00,
2013-02-27 11:25:00,64.5,40.3,30.29,NE,44,2.3,3.5,41,0.00,CLR,,0.00,729.0,WeatherDisplay:10.37,2013-02-27 19:25:00,
2013-02-27 11:30:00,64.7,39.8,30.29,NE,47,3.8,6.9,40,0.00,CLR,,0.00,735.0,WeatherDisplay:10.37,2013-02-27 19:30:00,
2013-02-27 11:35:00,64.9,40.0,30.29,NE,35,3.6,5.0,40,0.00,CLR,,0.00,742.0,WeatherDisplay:10.37,2013-02-27 19:35:00,
2013-02-27 11:40:00,65.1,39.5,30.29,NE,51,3.0,5.0,39,0.00,CLR,,0.00,745.0,WeatherDisplay:10.37,2013-02-27 19:40:00,
2013-02-27 11:45:00,65.3,39.7,30.29,NE,51,2.5,3.5,39,0.00,CLR,,0.00,747.0,WeatherDisplay:10.37,2013-02-27 19:45:00,
2013-02-27 11:50:00,65.4,39.8,30.29,NE,48,4.0,5.8,39,0.00,CLR,,0.00,751.0,WeatherDisplay:10.37,2013-02-27 19:50:00,
2013-02-27 11:55:00,65.7,40.1,30.29,NNW,348,1.6,5.0,39,0.00,CLR,,0.00,754.0,WeatherDisplay:10.37,2013-02-27 19:55:00,
2013-02-27 12:00:00,66.2,39.8,30.29,NNE,20,0.6,3.5,38,0.00,CLR,,0.00,754.0,WeatherDisplay:10.37,2013-02-27 20:00:00,
2013-02-27 12:05:00,66.7,39.6,30.28,NNE,20,2.4,3.5,37,0.00,CLR,,0.00,758.0,WeatherDisplay:10.37,2013-02-27 20:05:00,
2013-02-27 12:10:00,67.2,40.0,30.28,North,352,1.6,3.0,37,0.00,CLR,,0.00,759.0,WeatherDisplay:10.37,2013-02-27 20:10:00,
2013-02-27 12:15:00,67.5,39.6,30.28,WNW,289,3.4,5.8,36,0.00,CLR,,0.00,758.0,WeatherDisplay:10.37,2013-02-27 20:15:00,
2013-02-27 12:20:00,67.9,40.7,30.28,NNW,330,1.3,3.5,37,0.00,CLR,,0.00,758.0,WeatherDisplay:10.37,2013-02-27 20:20:00,
2013-02-27 12:25:00,68.2,40.2,30.28,NNE,21,1.5,3.5,36,0.00,CLR,,0.00,751.0,WeatherDisplay:10.37,2013-02-27 20:25:00,
2013-02-27 12:30:00,68.7,39.9,30.28,North,353,1.7,3.5,35,0.00,CLR,,0.00,752.0,WeatherDisplay:10.37,2013-02-27 20:30:00,
2013-02-27 12:35:00,69.2,39.6,30.28,NNW,336,2.6,3.5,34,0.00,CLR,,0.00,752.0,WeatherDisplay:10.37,2013-02-27 20:35:00,
2013-02-27 12:40:00,69.7,40.1,30.28,NW,325,2.2,4.6,34,0.00,CLR,,0.00,749.0,WeatherDisplay:10.37,2013-02-27 20:40:00,
2013-02-27 12:45:00,69.9,40.2,30.28,NW,325,2.9,3.5,34,0.00,CLR,,0.00,744.0,WeatherDisplay:10.37,2013-02-27 20:45:00,
2013-02-27 12:50:00,69.9,38.7,30.28,North,1,2.4,3.5,32,0.00,CLR,,0.00,744.0,WeatherDisplay:10.37,2013-02-27 20:50:00,
2013-02-27 12:55:00,69.9,37.9,30.28,NNW,341,3.4,4.6,31,0.00,CLR,,0.00,742.0,WeatherDisplay:10.37,2013-02-27 20:55:00,
2013-02-27 13:00:00,69.9,38.7,30.27,NNW,332,1.6,2.3,32,0.00,CLR,,0.00,737.0,WeatherDisplay:10.37,2013-02-27 21:00:00,
2013-02-27 13:05:00,70.1,38.9,30.27,North,354,2.8,3.5,32,0.00,CLR,,0.00,733.0,WeatherDisplay:10.37,2013-02-27 21:05:00,
2013-02-27 13:10:00,70.5,37.6,30.27,NW,326,2.3,5.8,30,0.00,CLR,,0.00,724.0,WeatherDisplay:10.37,2013-02-27 21:10:00,
2013-02-27 13:15:00,70.8,37.8,30.27,NW,324,4.1,6.9,30,0.00,CLR,,0.00,724.0,WeatherDisplay:10.37,2013-02-27 21:15:00,
2013-02-27 13:20:00,71.0,38.8,30.27,WNW,303,2.9,4.6,31,0.00,CLR,,0.00,715.0,WeatherDisplay:10.37,2013-02-27 21:20:00,
2013-02-27 13:25:00,71.2,38.2,30.27,WNW,289,2.4,3.5,30,0.00,CLR,,0.00,712.0,WeatherDisplay:10.37,2013-02-27 21:25:00,
2013-02-27 13:30:00,70.8,39.5,30.27,NW,324,0.2,1.1,32,0.00,CLR,,0.00,700.0,WeatherDisplay:10.37,2013-02-27 21:30:00,
2013-02-27 13:36:00,70.9,39.6,30.26,West,272,2.6,4.6,32,0.00,CLR,,0.00,694.0,WeatherDisplay:10.37,2013-02-27 21:36:00,
2013-02-27 13:41:00,70.8,38.7,30.26,WNW,299,1.2,2.3,31,0.00,CLR,,0.00,687.0,WeatherDisplay:10.37,2013-02-27 21:41:00,
2013-02-27 13:46:00,71.0,41.2,30.26,NNW,342,1.6,3.0,34,0.00,CLR,,0.00,684.0,WeatherDisplay:10.37,2013-02-27 21:46:00,
2013-02-27 13:51:00,71.0,42.0,30.26,NNE,19,3.3,5.8,35,0.00,CLR,,0.00,666.0,WeatherDisplay:10.37,2013-02-27 21:51:00,
2013-02-27 13:56:00,70.9,41.9,30.26,NNW,344,1.7,4.6,35,0.00,CLR,,0.00,661.0,WeatherDisplay:10.37,2013-02-27 21:56:00,
2013-02-27 14:01:00,70.8,41.8,30.26,North,7,2.2,5.0,35,0.00,CLR,,0.00,652.0,WeatherDisplay:10.37,2013-02-27 22:01:00,
2013-02-27 14:06:00,70.9,41.9,30.26,North,353,2.2,4.0,35,0.00,CLR,,0.00,635.0,WeatherDisplay:10.37,2013-02-27 22:06:00,
2013-02-27 14:11:00,70.9,41.9,30.26,North,360,2.2,3.5,35,0.00,CLR,,0.00,640.0,WeatherDisplay:10.37,2013-02-27 22:11:00,
2013-02-27 14:16:00,71.0,41.2,30.26,NNE,21,2.5,3.5,34,0.00,CLR,,0.00,624.0,WeatherDisplay:10.37,2013-02-27 22:16:00,
2013-02-27 14:21:00,71.1,41.3,30.26,NNE,30,2.2,3.5,34,0.00,CLR,,0.00,621.0,WeatherDisplay:10.37,2013-02-27 22:21:00,
2013-02-27 14:26:00,71.2,42.1,30.26,NW,317,2.3,4.6,35,0.00,CLR,,0.00,617.0,WeatherDisplay:10.37,2013-02-27 22:26:00,
2013-02-27 14:31:00,71.4,42.3,30.26,NW,324,3.2,4.6,35,0.00,CLR,,0.00,594.0,WeatherDisplay:10.37,2013-02-27 22:31:00,
2013-02-27 14:36:00,71.2,42.1,30.26,NW,311,4.6,6.0,35,0.00,CLR,,0.00,591.0,WeatherDisplay:10.37,2013-02-27 22:36:00,
2013-02-27 14:41:00,71.0,42.0,30.26,NNW,342,4.1,6.9,35,0.00,CLR,,0.00,568.0,WeatherDisplay:10.37,2013-02-27 22:41:00,
2013-02-27 14:46:00,70.9,41.9,30.26,NW,323,6.5,9.2,35,0.00,CLR,,0.00,554.0,WeatherDisplay:10.37,2013-02-27 22:46:00,
2013-02-27 14:51:00,70.7,41.7,30.26,WNW,302,2.7,6.0,35,0.00,CLR,,0.00,541.0,WeatherDisplay:10.37,2013-02-27 22:51:00,
2013-02-27 14:56:00,70.6,41.6,30.26,WNW,287,2.7,4.6,35,0.00,CLR,,0.00,529.0,WeatherDisplay:10.37,2013-02-27 22:56:00,
2013-02-27 15:01:00,70.5,41.5,30.26,NW,326,1.9,3.5,35,0.00,CLR,,0.00,515.0,WeatherDisplay:10.37,2013-02-27 23:01:00,
2013-02-27 15:06:00,70.5,41.5,30.26,NW,324,3.7,4.6,35,0.00,CLR,,0.00,501.0,WeatherDisplay:10.37,2013-02-27 23:06:00,
2013-02-27 15:11:00,70.5,42.2,30.26,NNW,334,1.1,3.0,36,0.00,CLR,,0.00,487.0,WeatherDisplay:10.37,2013-02-27 23:11:00,
2013-02-27 15:16:00,70.4,42.9,30.26,NNW,342,2.5,3.5,37,0.00,CLR,,0.00,475.0,WeatherDisplay:10.37,2013-02-27 23:16:00,
2013-02-27 15:21:00,70.6,43.7,30.26,NW,305,5.7,6.9,38,0.00,CLR,,0.00,466.0,WeatherDisplay:10.37,2013-02-27 23:21:00,
2013-02-27 15:26:00,70.8,43.9,30.26,NNW,327,2.4,3.5,38,0.00,CLR,,0.00,459.0,WeatherDisplay:10.37,2013-02-27 23:26:00,
2013-02-27 15:31:00,70.9,43.3,30.26,NNW,338,1.9,4.6,37,0.00,CLR,,0.00,436.0,WeatherDisplay:10.37,2013-02-27 23:31:00,
2013-02-27 15:36:00,70.9,42.6,30.26,NW,310,2.2,3.5,36,0.00,CLR,,0.00,420.0,WeatherDisplay:10.37,2013-02-27 23:36:00,
2013-02-27 15:41:00,70.8,41.8,30.27,NNW,331,3.3,6.0,35,0.00,CLR,,0.00,406.0,WeatherDisplay:10.37,2013-02-27 23:41:00,
2013-02-27 15:46:00,70.7,41.7,30.27,NNW,339,2.4,4.6,35,0.00,CLR,,0.00,388.0,WeatherDisplay:10.37,2013-02-27 23:46:00,
2013-02-27 15:51:00,70.7,41.7,30.26,WNW,292,2.6,4.6,35,0.00,CLR,,0.00,367.0,WeatherDisplay:10.37,2013-02-27 23:51:00,
2013-02-27 15:56:00,70.6,41.6,30.26,NW,311,0.8,2.3,35,0.00,CLR,,0.00,352.0,WeatherDisplay:10.37,2013-02-27 23:56:00,
2013-02-27 16:01:00,70.6,40.9,30.26,NW,326,3.4,4.6,34,0.00,CLR,,0.00,332.0,WeatherDisplay:10.37,2013-02-28 00:01:00,
2013-02-27 16:06:00,70.3,40.6,30.27,WNW,294,4.5,7.0,34,0.00,CLR,,0.00,316.0,WeatherDisplay:10.37,2013-02-28 00:06:00,
2013-02-27 16:11:00,70.1,38.9,30.27,WNW,289,2.8,5.8,32,0.00,CLR,,0.00,301.0,WeatherDisplay:10.37,2013-02-28 00:11:00,
2013-02-27 16:16:00,70.0,37.1,30.26,WNW,287,3.0,4.6,30,0.00,CLR,,0.00,288.0,WeatherDisplay:10.37,2013-02-28 00:16:00,
2013-02-27 16:21:00,69.9,35.3,30.27,NW,324,2.4,3.5,28,0.00,CLR,,0.00,272.0,WeatherDisplay:10.37,2013-02-28 00:21:00,
2013-02-27 16:26:00,69.9,34.4,30.27,NW,326,2.2,3.5,27,0.00,CLR,,0.00,257.0,WeatherDisplay:10.37,2013-02-28 00:26:00,
2013-02-27 16:31:00,70.0,35.4,30.27,NNW,327,0.3,3.0,28,0.00,CLR,,0.00,239.0,WeatherDisplay:10.37,2013-02-28 00:31:00,
2013-02-27 16:36:00,70.1,35.5,30.27,NW,326,0.5,3.0,28,0.00,CLR,,0.00,218.0,WeatherDisplay:10.37,2013-02-28 00:36:00,
2013-02-27 16:41:00,70.0,35.4,30.27,NNW,331,0.3,2.3,28,0.00,CLR,,0.00,197.0,WeatherDisplay:10.37,2013-02-28 00:41:00,
2013-02-27 16:46:00,70.1,36.3,30.27,NNW,332,0.0,0.0,29,0.00,CLR,,0.00,176.0,WeatherDisplay:10.37,2013-02-28 00:46:00,
2013-02-27 16:51:00,70.0,36.3,30.27,NNW,331,1.3,2.3,29,0.00,CLR,,0.00,158.0,WeatherDisplay:10.37,2013-02-28 00:51:00,
2013-02-27 16:56:00,69.7,36.9,30.27,NNW,330,1.8,2.3,30,0.00,CLR,,0.00,135.0,WeatherDisplay:10.37,2013-02-28 00:56:00,
2013-02-27 17:01:00,69.4,37.4,30.27,NNW,330,1.2,2.3,31,0.00,CLR,,0.00,118.0,WeatherDisplay:10.37,2013-02-28 01:01:00,
2013-02-27 17:06:00,69.1,38.0,30.27,NNW,331,1.4,3.5,32,0.00,CLR,,0.00,98.0,WeatherDisplay:10.37,2013-02-28 01:06:00,
2013-02-27 17:11:00,68.9,37.8,30.27,NNW,330,1.9,3.5,32,0.00,CLR,,0.00,84.0,WeatherDisplay:10.37,2013-02-28 01:11:00,
2013-02-27 17:16:00,68.7,38.4,30.27,NW,311,1.7,3.5,33,0.00,CLR,,0.00,69.0,WeatherDisplay:10.37,2013-02-28 01:16:00,
2013-02-27 17:21:00,68.4,38.2,30.27,NW,313,1.6,3.5,33,0.00,CLR,,0.00,56.0,WeatherDisplay:10.37,2013-02-28 01:21:00,
2013-02-27 17:26:00,68.1,38.7,30.27,NW,314,1.3,2.3,34,0.00,CLR,,0.00,42.0,WeatherDisplay:10.37,2013-02-28 01:26:00,
2013-02-27 17:31:00,67.8,38.4,30.27,NW,320,2.2,3.5,34,0.00,CLR,,0.00,37.0,WeatherDisplay:10.37,2013-02-28 01:31:00,
2013-02-27 17:36:00,67.4,37.3,30.27,NW,315,2.1,3.5,33,0.00,CLR,,0.00,28.0,WeatherDisplay:10.37,2013-02-28 01:36:00,
2013-02-27 17:41:00,66.8,36.8,30.27,NW,315,0.4,2.3,33,0.00,CLR,,0.00,19.0,WeatherDisplay:10.37,2013-02-28 01:41:00,
2013-02-27 17:46:00,66.0,36.1,30.27,NW,315,0.8,2.3,33,0.00,CLR,,0.00,12.0,WeatherDisplay:10.37,2013-02-28 01:46:00,
2013-02-27 17:51:00,65.3,36.2,30.27,NW,314,0.0,0.0,34,0.00,CLR,,0.00,9.0,WeatherDisplay:10.37,2013-02-28 01:51:00,
2013-02-27 17:56:00,64.8,37.2,30.27,NW,314,1.1,2.3,36,0.00,CLR,,0.00,5.0,WeatherDisplay:10.37,2013-02-28 01:56:00,
2013-02-27 18:01:00,64.1,37.3,30.27,WNW,301,1.8,2.3,37,0.00,CLR,,0.00,0.0,WeatherDisplay:10.37,2013-02-28 02:01:00,
2013-02-27 18:06:00,63.4,38.6,30.28,WNW,287,2.1,3.5,40,0.00,CLR,,0.00,0.0,WeatherDisplay:10.37,2013-02-28 02:06:00,
2013-02-27 18:11:00,62.6,39.2,30.28,West,276,2.9,3.5,42,0.00,CLR,,0.00,0.0,WeatherDisplay:10.37,2013-02-28 02:11:00,
2013-02-27 18:16:00,61.8,38.4,30.28,West,270,5.4,6.9,42,0.00,CLR,,0.00,0.0,WeatherDisplay:10.37,2013-02-28 02:16:00,
2013-02-27 18:21:00,61.1,39.0,30.28,West,259,7.1,10.4,44,0.00,CLR,,0.00,0.0,WeatherDisplay:10.37,2013-02-28 02:21:00,
2013-02-27 18:26:00,60.7,39.2,30.29,WNW,285,6.8,10.4,45,0.00,CLR,,0.00,0.0,WeatherDisplay:10.37,2013-02-28 02:26:00,
2013-02-27 18:31:00,60.4,39.5,30.29,WNW,285,6.3,9.2,46,0.00,CLR,,0.00,0.0,WeatherDisplay:10.37,2013-02-28 02:31:00,
2013-02-27 18:36:00,60.0,39.1,30.29,West,280,6.3,8.1,46,0.00,CLR,,0.00,0.0,WeatherDisplay:10.37,2013-02-28 02:36:00,
2013-02-27 18:41:00,59.7,39.4,30.30,WNW,293,3.3,3.5,47,0.00,CLR,,0.00,0.0,WeatherDisplay:10.37,2013-02-28 02:41:00,
2013-02-27 18:46:00,59.3,39.6,30.30,West,277,3.0,3.5,48,0.00,CLR,,0.00,0.0,WeatherDisplay:10.37,2013-02-28 02:46:00,
2013-02-27 18:51:00,58.9,39.2,30.30,West,277,1.3,2.3,48,0.00,CLR,,0.00,0.0,WeatherDisplay:10.37,2013-02-28 02:51:00,
2013-02-27 18:56:00,58.6,39.5,30.30,West,264,1.9,3.5,49,0.00,CLR,,0.00,0.0,WeatherDisplay:10.37,2013-02-28 02:56:00,
2013-02-27 19:01:00,58.3,39.7,30.31,West,264,2.0,3.5,50,0.00,CLR,,0.00,0.0,WeatherDisplay:10.37,2013-02-28 03:01:00,
2013-02-27 19:06:00,58.1,39.0,30.31,West,264,0.6,1.1,49,0.00,CLR,,0.00,0.0,WeatherDisplay:10.37,2013-02-28 03:06:00,
2013-02-27 19:11:00,57.8,39.3,30.31,West,264,1.1,2.3,50,0.00,CLR,,0.00,0.0,WeatherDisplay:10.37,2013-02-28 03:11:00,
2013-02-27 19:16:00,57.6,39.1,30.31,West,264,0.0,0.0,50,0.00,CLR,,0.00,0.0,WeatherDisplay:10.37,2013-02-28 03:16:00,
2013-02-27 19:21:00,57.3,38.8,30.31,West,264,0.0,0.0,50,0.00,CLR,,0.00,0.0,WeatherDisplay:10.37,2013-02-28 03:21:00,
2013-02-27 19:26:00,57.1,39.1,30.31,West,264,0.4,1.1,51,0.00,CLR,,0.00,0.0,WeatherDisplay:10.37,2013-02-28 03:26:00,
2013-02-27 19:31:00,56.8,39.4,30.32,North,9,1.9,3.5,52,0.00,CLR,,0.00,0.0,WeatherDisplay:10.37,2013-02-28 03:31:00,
2013-02-27 19:36:00,56.5,39.6,30.32,NNE,19,2.7,3.5,53,0.00,CLR,,0.00,0.0,WeatherDisplay:10.37,2013-02-28 03:36:00,
2013-02-27 19:41:00,56.2,39.8,30.32,North,351,2.3,3.5,54,0.00,CLR,,0.00,0.0,WeatherDisplay:10.37,2013-02-28 03:41:00,
2013-02-27 19:46:00,56.0,40.1,30.33,North,351,0.9,2.0,55,0.00,CLR,,0.00,0.0,WeatherDisplay:10.37,2013-02-28 03:46:00,
2013-02-27 19:51:00,55.7,39.8,30.33,North,351,1.7,3.5,55,0.00,CLR,,0.00,0.0,WeatherDisplay:10.37,2013-02-28 03:51:00,
2013-02-27 19:56:00,55.3,38.9,30.33,North,351,0.1,1.1,54,0.00,CLR,,0.00,0.0,WeatherDisplay:10.37,2013-02-28 03:56:00,
2013-02-27 20:01:00,55.0,38.2,30.33,North,352,0.1,1.1,53,0.00,CLR,,0.00,0.0,WeatherDisplay:10.37,2013-02-28 04:01:00,
2013-02-27 20:06:00,54.8,38.5,30.33,NW,326,0.6,2.3,54,0.00,CLR,,0.00,0.0,WeatherDisplay:10.37,2013-02-28 04:06:00,
2013-02-27 20:11:00,54.5,38.2,30.33,NW,311,2.3,3.5,54,0.00,CLR,,0.00,0.0,WeatherDisplay:10.37,2013-02-28 04:11:00,
2013-02-27 20:16:00,54.3,38.9,30.33,WNW,303,1.0,3.5,56,0.00,CLR,,0.00,0.0,WeatherDisplay:10.37,2013-02-28 04:16:00,
2013-02-27 20:21:00,54.1,38.3,30.33,WNW,287,1.3,2.3,55,0.00,CLR,,0.00,0.0,WeatherDisplay:10.37,2013-02-28 04:21:00,
2013-02-27 20:26:00,53.9,38.6,30.33,WNW,287,0.6,1.1,56,0.00,CLR,,0.00,0.0,WeatherDisplay:10.37,2013-02-28 04:26:00,
2013-02-27 20:31:00,53.7,38.4,30.33,WNW,287,0.0,0.0,56,0.00,CLR,,0.00,0.0,WeatherDisplay:10.37,2013-02-28 04:31:00,
2013-02-27 20:36:00,53.6,38.3,30.33,WNW,287,0.0,0.0,56,0.00,CLR,,0.00,0.0,WeatherDisplay:10.37,2013-02-28 04:36:00,
2013-02-27 20:41:00,53.4,38.5,30.33,WNW,287,0.0,0.0,57,0.00,CLR,,0.00,0.0,WeatherDisplay:10.37,2013-02-28 04:41:00,
2013-02-27 20:46:00,53.3,38.4,30.34,WNW,287,0.0,0.0,57,0.00,CLR,,0.00,0.0,WeatherDisplay:10.37,2013-02-28 04:46:00,
2013-02-27 20:51:00,53.3,38.4,30.34,WNW,287,0.0,0.0,57,0.00,CLR,,0.00,0.0,WeatherDisplay:10.37,2013-02-28 04:51:00,
2013-02-27 20:56:00,53.2,38.8,30.34,NW,310,1.8,3.5,58,0.00,CLR,,0.00,0.0,WeatherDisplay:10.37,2013-02-28 04:56:00,
2013-02-27 21:00:00,53.2,38.8,30.34,NNW,329,2.0,3.0,58,0.00,CLR,CLR,0.00,0.0,WeatherDisplay:10.37,2013-02-28 05:00:00,
2013-02-27 21:05:00,53.1,39.1,30.34,North,3,0.1,1.1,59,0.00,CLR,,0.00,0.0,WeatherDisplay:10.37,2013-02-28 05:05:00,
2013-02-27 21:10:00,53.0,39.0,30.34,North,5,0.0,0.0,59,0.00,CLR,,0.00,0.0,WeatherDisplay:10.37,2013-02-28 05:10:00,
2013-02-27 21:15:00,53.3,39.3,30.34,SSW,197,3.2,4.6,59,0.00,CLR,,0.00,0.0,WeatherDisplay:10.37,2013-02-28 05:15:00,
2013-02-27 21:20:00,53.7,39.3,30.35,SW,236,2.1,3.5,58,0.00,CLR,,0.00,0.0,WeatherDisplay:10.37,2013-02-28 05:20:00,
2013-02-27 21:25:00,53.9,39.5,30.34,WSW,253,2.1,3.5,58,0.00,CLR,,0.00,0.0,WeatherDisplay:10.37,2013-02-28 05:25:00,
2013-02-27 21:30:00,54.2,40.2,30.35,WSW,251,3.0,4.6,59,0.00,CLR,,0.00,0.0,WeatherDisplay:10.37,2013-02-28 05:30:00,
2013-02-27 21:35:00,54.4,40.4,30.35,WSW,239,1.4,4.6,59,0.00,CLR,,0.00,0.0,WeatherDisplay:10.37,2013-02-28 05:35:00,
2013-02-27 21:40:00,54.5,40.5,30.35,WSW,247,1.3,3.5,59,0.00,CLR,,0.00,0.0,WeatherDisplay:10.37,2013-02-28 05:40:00,
2013-02-27 21:45:00,54.6,40.6,30.35,WSW,249,1.3,3.5,59,0.00,CLR,,0.00,0.0,WeatherDisplay:10.37,2013-02-28 05:45:00,
2013-02-27 21:50:00,54.6,40.6,30.35,WSW,249,2.7,3.5,59,0.00,CLR,,0.00,0.0,WeatherDisplay:10.37,2013-02-28 05:50:00,
2013-02-27 21:55:00,54.5,40.9,30.35,West,261,4.6,6.0,60,0.00,CLR,,0.00,0.0,WeatherDisplay:10.37,2013-02-28 05:55:00,
2013-02-27 22:00:00,54.5,40.9,30.35,West,259,1.3,2.3,60,0.00,CLR,,0.00,0.0,WeatherDisplay:10.37,2013-02-28 06:00:00,
2013-02-27 22:05:00,54.5,40.9,30.35,NNE,27,2.5,4.0,60,0.00,CLR,,0.00,0.0,WeatherDisplay:10.37,2013-02-28 06:05:00,
2013-02-27 22:10:00,54.2,40.6,30.35,East,89,1.8,2.0,60,0.00,CLR,,0.00,0.0,WeatherDisplay:10.37,2013-02-28 06:10:00,
2013-02-27 22:15:00,53.8,40.2,30.35,East,90,0.0,0.0,60,0.00,CLR,,0.00,0.0,WeatherDisplay:10.37,2013-02-28 06:15:00,
2013-02-27 22:20:00,53.4,40.3,30.35,East,79,3.2,4.0,61,0.00,CLR,,0.00,0.0,WeatherDisplay:10.37,2013-02-28 06:20:00,
2013-02-27 22:25:00,52.9,40.2,30.35,ENE,65,0.3,2.3,62,0.00,CLR,,0.00,0.0,WeatherDisplay:10.37,2013-02-28 06:25:00,
2013-02-27 22:30:00,52.7,40.9,30.35,WNW,287,0.8,2.3,64,0.00,CLR,,0.00,0.0,WeatherDisplay:10.37,2013-02-28 06:30:00,
2013-02-27 22:35:00,52.6,40.8,30.35,NNW,344,0.0,1.1,64,0.00,CLR,,0.00,0.0,WeatherDisplay:10.37,2013-02-28 06:35:00,
2013-02-27 22:40:00,52.5,40.7,30.35,NNW,345,0.0,0.0,64,0.00,CLR,,0.00,0.0,WeatherDisplay:10.37,2013-02-28 06:40:00,
2013-02-27 22:45:00,52.4,41.0,30.35,North,351,1.3,3.5,65,0.00,CLR,,0.00,0.0,WeatherDisplay:10.37,2013-02-28 06:45:00,
2013-02-27 22:50:00,52.3,41.7,30.35,North,351,0.0,0.0,67,0.00,CLR,,0.00,0.0,WeatherDisplay:10.37,2013-02-28 06:50:00,
2013-02-27 22:55:00,52.2,41.2,30.35,North,351,0.0,0.0,66,0.00,CLR,,0.00,0.0,WeatherDisplay:10.37,2013-02-28 06:55:00,
2013-02-27 23:00:00,52.1,41.5,30.36,North,351,0.0,0.0,67,0.00,CLR,,0.00,0.0,WeatherDisplay:10.37,2013-02-28 07:00:00,
2013-02-27 23:05:00,51.9,41.3,30.36,North,351,0.0,2.3,67,0.00,CLR,,0.00,0.0,WeatherDisplay:10.37,2013-02-28 07:05:00,
2013-02-27 23:10:00,51.7,41.5,30.36,North,351,0.0,2.3,68,0.00,CLR,,0.00,0.0,WeatherDisplay:10.37,2013-02-28 07:10:00,
2013-02-27 23:15:00,51.5,42.0,30.36,North,351,0.0,0.0,70,0.00,CLR,,0.00,0.0,WeatherDisplay:10.37,2013-02-28 07:15:00,
2013-02-27 23:20:00,51.3,42.2,30.36,North,358,1.4,3.0,71,0.00,CLR,,0.00,0.0,WeatherDisplay:10.37,2013-02-28 07:20:00,
2013-02-27 23:25:00,51.0,43.0,30.36,East,96,5.8,6.9,74,0.00,CLR,,0.00,0.0,WeatherDisplay:10.37,2013-02-28 07:25:00,
2013-02-27 23:30:00,50.3,43.0,30.36,ESE,109,3.4,4.6,76,0.00,CLR,,0.00,0.0,WeatherDisplay:10.37,2013-02-28 07:30:00,
2013-02-27 23:35:00,49.9,42.6,30.35,ESE,109,2.3,3.5,76,0.00,CLR,,0.00,0.0,WeatherDisplay:10.37,2013-02-28 07:35:00,
2013-02-27 23:40:00,49.8,42.5,30.35,ESE,114,1.8,3.5,76,0.00,CLR,,0.00,0.0,WeatherDisplay:10.37,2013-02-28 07:40:00,
2013-02-27 23:45:00,49.8,42.2,30.35,ESE,105,1.1,2.3,75,0.00,CLR,,0.00,0.0,WeatherDisplay:10.37,2013-02-28 07:45:00,
2013-02-27 23:50:00,49.8,41.8,30.35,ESE,105,0.0,0.0,74,0.00,CLR,,0.00,0.0,WeatherDisplay:10.37,2013-02-28 07:50:00,
2013-02-27 23:55:00,49.8,41.8,30.36,East,97,4.3,5.0,74,0.00,CLR,,0.00,0.0,WeatherDisplay:10.37,2013-02-28 07:55:00,